Vasiliy Bozhenko — URHP — position and weather

sailwx.info

Track history (hours):
 
Tides and Currents Weather Stations Pressure Air Temp Water Temp Dewpoint Dewpoint Depression Visibility Wind Speed Wind Dir Waves Ship Positions

Vasiliy Bozhenko

Last reported at 2014-Oct-23 10:27 UTC. Time now 2014-Oct-24 10:15 UTC.
Position N 42°40' E 037°04'.

Length 114 m; draft 3.7 m.

Type: Cargo ship. MMSI: 272085000.

Date/timePositionNaut miles runAvg speedWind from/ knotsBaromVisibWave heightAir tempDewpointWater temp
2014-Oct-23 10:27N 42°40' E 037°04'8 7.1
2014-Oct-23 09:24N 42°40' E 036°53'325 6.5
2014-Oct-21 07:15N 46°35' E 031°39'5 7.6
2014-Oct-21 06:33N 46°36' E 031°46'7 7.4
2014-Oct-21 05:33N 46°34' E 031°57'7 7.3
2014-Oct-21 04:33N 46°32' E 032°07'14 6.4
2014-Oct-21 02:25N 46°34' E 032°27'130 3.4
2014-Oct-19 12:33N 47°43' E 035°09'6 6.4
2014-Oct-19 11:33N 47°49' E 035°08'3 2.9
2014-Oct-19 10:34N 47°52' E 035°05'2 1.8
2014-Oct-19 09:34N 47°54' E 035°06'  
Track history (hours):
 
Tides and Currents Weather Stations Pressure Air Temp Water Temp Dewpoint Dewpoint Depression Visibility Wind Speed Wind Dir Waves Ship Positions

Vasiliy Bozhenko

Last reported at 2014-Oct-23 10:27 UTC. Time now 2014-Oct-24 10:15 UTC.
Position N 42°40' E 037°04'.

Length 114 m; draft 3.7 m.

Type: Cargo ship. MMSI: 272085000.

Date/timePositionNaut miles runAvg speedWind from/ knotsBaromVisibWave heightAir tempDewpointWater temp
2014-Oct-23 10:27N 42°40' E 037°04'8 7.1
2014-Oct-23 09:24N 42°40' E 036°53'325 6.5
2014-Oct-21 07:15N 46°35' E 031°39'5 7.6
2014-Oct-21 06:33N 46°36' E 031°46'7 7.4
2014-Oct-21 05:33N 46°34' E 031°57'7 7.3
2014-Oct-21 04:33N 46°32' E 032°07'14 6.4
2014-Oct-21 02:25N 46°34' E 032°27'130 3.4
2014-Oct-19 12:33N 47°43' E 035°09'6 6.4
2014-Oct-19 11:33N 47°49' E 035°08'3 2.9
2014-Oct-19 10:34N 47°52' E 035°05'2 1.8
2014-Oct-19 09:34N 47°54' E 035°06'  

Dump ship's entire track history